Twin Cities, Minnesota
Current Conditions -  °F | °C
As of 1:53 PM on Thursday 29 Jan 2015 (Local Time) from KMSP Reporting Station
Overcast Overcast  
Wind Chill: 13°   Ceiling: 2800
Heat Index: 28°   Visibility: 10mi
Dew Point: 17°   Wind: 26mph
Humidity: 63%   Direction: 320°NW
Pressure: 30.27"   Gusts: 32mph
Location:  44.8695°N, 93.2126°W
Report Text: KMSP 291953Z 32023G28KT 10SM OVC028 M02/M08 A3027 RMK AO2 PK WND 31028/1918 SLP261 T10221083
Loading
Personal Weather Stations






























Interactive Weather Map New forecast layout! Learn more

10-Day Weather Forecast

Advertisements
Track Severe Weather on mobile